sensor_id;sensor_type;location;lat;lon;timestamp;pressure;altitude;pressure_sealevel;temperature;humidity
43621;BME280;29213;50.770;7.298;2023-05-15T00:01:19;100615.81;;;11.55;58.75
43621;BME280;29213;50.770;7.298;2023-05-15T00:03:45;100588.69;;;11.43;58.91
43621;BME280;29213;50.770;7.298;2023-05-15T00:06:10;100647.94;;;11.70;59.05
43621;BME280;29213;50.770;7.298;2023-05-15T00:08:36;100637.63;;;11.67;59.08
43621;BME280;29213;50.770;7.298;2023-05-15T00:11:01;100584.88;;;11.21;59.19
43621;BME280;29213;50.770;7.298;2023-05-15T00:13:27;100647.97;;;11.62;59.07
43621;BME280;29213;50.770;7.298;2023-05-15T00:15:52;100579.69;;;11.19;59.43
43621;BME280;29213;50.770;7.298;2023-05-15T00:18:17;100608.50;;;11.32;59.13
43621;BME280;29213;50.770;7.298;2023-05-15T00:20:43;100583.03;;;11.21;59.47
43621;BME280;29213;50.770;7.298;2023-05-15T00:23:08;100603.34;;;11.31;59.61
43621;BME280;29213;50.770;7.298;2023-05-15T00:25:33;100631.31;;;11.52;59.51
43621;BME280;29213;50.770;7.298;2023-05-15T00:27:59;100602.69;;;11.29;59.46
43621;BME280;29213;50.770;7.298;2023-05-15T00:30:25;100604.84;;;11.25;59.36
43621;BME280;29213;50.770;7.298;2023-05-15T00:32:50;100522.28;;;10.75;59.60
43621;BME280;29213;50.770;7.298;2023-05-15T00:35:15;100566.03;;;10.98;59.66
43621;BME280;29213;50.770;7.298;2023-05-15T00:37:41;100619.19;;;11.32;59.84
43621;BME280;29213;50.770;7.298;2023-05-15T00:40:09;100631.34;;;11.35;59.93
43621;BME280;29213;50.770;7.298;2023-05-15T00:42:37;100593.72;;;11.05;59.72
43621;BME280;29213;50.770;7.298;2023-05-15T00:45:04;100537.22;;;10.68;59.79
43621;BME280;29213;50.770;7.298;2023-05-15T00:47:31;100579.06;;;10.92;59.86
43621;BME280;29213;50.770;7.298;2023-05-15T00:49:57;100632.53;;;11.24;59.87
43621;BME280;29213;50.770;7.298;2023-05-15T00:52:24;100619.53;;;11.13;59.99
43621;BME280;29213;50.770;7.298;2023-05-15T00:54:50;100632.19;;;11.19;60.16
43621;BME280;29213;50.770;7.298;2023-05-15T00:57:16;100557.75;;;10.76;59.72
43621;BME280;29213;50.770;7.298;2023-05-15T00:59:42;100583.38;;;10.85;59.76
43621;BME280;29213;50.770;7.298;2023-05-15T01:02:09;100528.22;;;10.52;60.00
43621;BME280;29213;50.770;7.298;2023-05-15T01:04:35;100606.84;;;10.98;59.82
43621;BME280;29213;50.770;7.298;2023-05-15T01:07:01;100590.53;;;10.85;59.78
43621;BME280;29213;50.770;7.298;2023-05-15T01:09:29;100579.88;;;10.76;59.79
43621;BME280;29213;50.770;7.298;2023-05-15T01:11:56;100635.34;;;11.06;60.01
43621;BME280;29213;50.770;7.298;2023-05-15T01:14:23;100572.31;;;10.63;60.08
43621;BME280;29213;50.770;7.298;2023-05-15T01:16:48;100630.19;;;10.96;60.37
43621;BME280;29213;50.770;7.298;2023-05-15T01:19:14;100570.16;;;10.59;59.87
43621;BME280;29213;50.770;7.298;2023-05-15T01:22:03;100632.66;;;10.98;60.22
43621;BME280;29213;50.770;7.298;2023-05-15T01:27:58;100585.84;;;10.62;60.20
43621;BME280;29213;50.770;7.298;2023-05-15T01:30:29;100627.66;;;10.86;60.13
43621;BME280;29213;50.770;7.298;2023-05-15T01:33:04;100630.66;;;10.83;60.29
43621;BME280;29213;50.770;7.298;2023-05-15T01:35:37;100630.16;;;10.79;60.14
43621;BME280;29213;50.770;7.298;2023-05-15T01:38:26;100634.16;;;10.75;60.33
43621;BME280;29213;50.770;7.298;2023-05-15T01:41:05;100634.78;;;10.69;60.31
43621;BME280;29213;50.770;7.298;2023-05-15T01:43:34;100610.44;;;10.55;60.51
43621;BME280;29213;50.770;7.298;2023-05-15T01:46:02;100637.44;;;10.69;60.48
43621;BME280;29213;50.770;7.298;2023-05-15T01:48:30;100572.78;;;10.34;60.38
43621;BME280;29213;50.770;7.298;2023-05-15T01:51:00;100589.63;;;10.42;60.67
43621;BME280;29213;50.770;7.298;2023-05-15T01:53:29;100628.25;;;10.63;60.48
43621;BME280;29213;50.770;7.298;2023-05-15T01:55:56;100543.59;;;10.07;60.45
43621;BME280;29213;50.770;7.298;2023-05-15T01:58:24;100595.59;;;10.36;60.37
43621;BME280;29213;50.770;7.298;2023-05-15T02:00:51;100625.25;;;10.58;60.26
43621;BME280;29213;50.770;7.298;2023-05-15T02:03:18;100627.09;;;10.57;60.64
43621;BME280;29213;50.770;7.298;2023-05-15T02:05:45;100639.72;;;10.55;60.52
43621;BME280;29213;50.770;7.298;2023-05-15T02:08:11;100627.41;;;10.54;60.54
43621;BME280;29213;50.770;7.298;2023-05-15T02:10:38;100625.09;;;10.51;60.23
43621;BME280;29213;50.770;7.298;2023-05-15T02:13:06;100570.69;;;10.11;60.28
43621;BME280;29213;50.770;7.298;2023-05-15T02:15:33;100582.34;;;10.10;60.44
43621;BME280;29213;50.770;7.298;2023-05-15T02:17:58;100627.06;;;10.41;60.50
43621;BME280;29213;50.770;7.298;2023-05-15T02:20:23;100481.88;;;9.52;60.19
43621;BME280;29213;50.770;7.298;2023-05-15T02:22:49;100558.84;;;9.97;60.21
43621;BME280;29213;50.770;7.298;2023-05-15T02:25:14;100616.03;;;10.36;60.37
43621;BME280;29213;50.770;7.298;2023-05-15T02:28:00;100619.19;;;10.31;60.35
43621;BME280;29213;50.770;7.298;2023-05-15T02:30:36;100617.84;;;10.27;60.45
43621;BME280;29213;50.770;7.298;2023-05-15T02:33:30;100621.50;;;10.26;60.56
43621;BME280;29213;50.770;7.298;2023-05-15T02:36:03;100616.34;;;10.24;60.68
43621;BME280;29213;50.770;7.298;2023-05-15T02:38:51;100587.16;;;9.98;61.00
43621;BME280;29213;50.770;7.298;2023-05-15T02:41:17;100572.63;;;9.92;60.85
43621;BME280;29213;50.770;7.298;2023-05-15T02:43:44;100620.16;;;10.22;60.81
43621;BME280;29213;50.770;7.298;2023-05-15T02:46:12;100556.59;;;9.75;61.13
43621;BME280;29213;50.770;7.298;2023-05-15T02:48:39;100532.47;;;9.69;61.00
43621;BME280;29213;50.770;7.298;2023-05-15T02:51:05;100618.50;;;10.21;61.28
43621;BME280;29213;50.770;7.298;2023-05-15T02:53:32;100625.63;;;10.20;61.44
43621;BME280;29213;50.770;7.298;2023-05-15T02:55:57;100563.13;;;9.81;61.43
43621;BME280;29213;50.770;7.298;2023-05-15T02:58:23;100592.63;;;9.96;61.92
43621;BME280;29213;50.770;7.298;2023-05-15T03:00:48;100614.19;;;10.20;61.75
43621;BME280;29213;50.770;7.298;2023-05-15T03:03:14;100594.47;;;10.04;61.72
43621;BME280;29213;50.770;7.298;2023-05-15T03:05:39;100633.13;;;10.25;61.78
43621;BME280;29213;50.770;7.298;2023-05-15T03:08:05;100605.78;;;10.06;62.09
43621;BME280;29213;50.770;7.298;2023-05-15T03:10:30;100597.00;;;10.06;62.06
43621;BME280;29213;50.770;7.298;2023-05-15T03:12:56;100539.66;;;9.76;62.06
43621;BME280;29213;50.770;7.298;2023-05-15T03:15:24;100505.34;;;9.57;61.78
43621;BME280;29213;50.770;7.298;2023-05-15T03:17:49;100614.34;;;10.26;62.10
43621;BME280;29213;50.770;7.298;2023-05-15T03:20:15;100589.97;;;10.05;62.23
43621;BME280;29213;50.770;7.298;2023-05-15T03:22:40;100584.84;;;10.03;62.26
43621;BME280;29213;50.770;7.298;2023-05-15T03:25:09;100624.53;;;10.31;62.26
43621;BME280;29213;50.770;7.298;2023-05-15T03:27:35;100587.31;;;10.05;62.16
43621;BME280;29213;50.770;7.298;2023-05-15T03:30:01;100540.00;;;9.82;61.89
43621;BME280;29213;50.770;7.298;2023-05-15T03:32:26;100593.34;;;10.15;61.97
43621;BME280;29213;50.770;7.298;2023-05-15T03:34:52;100610.03;;;10.25;62.08
43621;BME280;29213;50.770;7.298;2023-05-15T03:37:17;100476.75;;;9.51;62.08
43621;BME280;29213;50.770;7.298;2023-05-15T03:39:42;100524.03;;;9.73;62.25
43621;BME280;29213;50.770;7.298;2023-05-15T03:42:08;100584.22;;;10.18;62.50
43621;BME280;29213;50.770;7.298;2023-05-15T03:44:33;100626.03;;;10.42;62.66
43621;BME280;29213;50.770;7.298;2023-05-15T03:46:59;100527.22;;;9.85;62.67
43621;BME280;29213;50.770;7.298;2023-05-15T03:49:24;100569.75;;;10.12;62.77
43621;BME280;29213;50.770;7.298;2023-05-15T03:51:50;100573.06;;;10.14;62.70
43621;BME280;29213;50.770;7.298;2023-05-15T03:54:15;100585.06;;;10.26;62.66
43621;BME280;29213;50.770;7.298;2023-05-15T03:56:40;100623.44;;;10.50;62.57
43621;BME280;29213;50.770;7.298;2023-05-15T03:59:06;100561.56;;;10.13;62.50
43621;BME280;29213;50.770;7.298;2023-05-15T04:01:31;100556.25;;;10.13;62.41
43621;BME280;29213;50.770;7.298;2023-05-15T04:03:57;100553.41;;;10.07;62.33
43621;BME280;29213;50.770;7.298;2023-05-15T04:06:22;100590.38;;;10.26;62.44
43621;BME280;29213;50.770;7.298;2023-05-15T04:08:48;100587.06;;;10.33;62.45
43621;BME280;29213;50.770;7.298;2023-05-15T04:11:14;100591.44;;;10.34;62.37
43621;BME280;29213;50.770;7.298;2023-05-15T04:13:40;100615.75;;;10.55;62.70
43621;BME280;29213;50.770;7.298;2023-05-15T04:16:05;100592.75;;;10.38;62.41
43621;BME280;29213;50.770;7.298;2023-05-15T04:18:31;100615.44;;;10.59;62.40
43621;BME280;29213;50.770;7.298;2023-05-15T04:20:57;100596.94;;;10.49;62.46
43621;BME280;29213;50.770;7.298;2023-05-15T04:23:22;100584.59;;;10.39;62.43
43621;BME280;29213;50.770;7.298;2023-05-15T04:25:48;100623.94;;;10.62;62.49
43621;BME280;29213;50.770;7.298;2023-05-15T04:28:14;100613.13;;;10.64;62.44
43621;BME280;29213;50.770;7.298;2023-05-15T04:30:39;100617.28;;;10.66;62.57
43621;BME280;29213;50.770;7.298;2023-05-15T04:33:05;100593.13;;;10.51;62.56
43621;BME280;29213;50.770;7.298;2023-05-15T04:35:30;100536.31;;;10.18;62.33
43621;BME280;29213;50.770;7.298;2023-05-15T04:37:56;100590.47;;;10.51;62.64
43621;BME280;29213;50.770;7.298;2023-05-15T04:40:21;100553.63;;;10.30;62.42
43621;BME280;29213;50.770;7.298;2023-05-15T04:42:47;100558.13;;;10.38;62.48
43621;BME280;29213;50.770;7.298;2023-05-15T04:45:12;100625.00;;;10.78;62.70
43621;BME280;29213;50.770;7.298;2023-05-15T04:47:39;100547.50;;;10.29;62.64
43621;BME280;29213;50.770;7.298;2023-05-15T04:50:05;100622.19;;;10.79;62.85
43621;BME280;29213;50.770;7.298;2023-05-15T04:52:31;100574.66;;;10.50;63.04
43621;BME280;29213;50.770;7.298;2023-05-15T04:54:57;100537.00;;;10.28;63.11
43621;BME280;29213;50.770;7.298;2023-05-15T04:57:22;100623.50;;;10.83;63.18
43621;BME280;29213;50.770;7.298;2023-05-15T04:59:48;100569.97;;;10.52;62.98
43621;BME280;29213;50.770;7.298;2023-05-15T05:02:14;100562.50;;;10.47;63.13
43621;BME280;29213;50.770;7.298;2023-05-15T05:04:42;100521.69;;;10.22;63.08
43621;BME280;29213;50.770;7.298;2023-05-15T05:07:09;100582.31;;;10.61;63.09
43621;BME280;29213;50.770;7.298;2023-05-15T05:09:35;100554.81;;;10.44;63.19
43621;BME280;29213;50.770;7.298;2023-05-15T05:12:00;100618.69;;;10.87;63.44
43621;BME280;29213;50.770;7.298;2023-05-15T05:14:28;100565.69;;;10.59;63.36
43621;BME280;29213;50.770;7.298;2023-05-15T05:16:55;100525.84;;;10.33;63.38
43621;BME280;29213;50.770;7.298;2023-05-15T05:19:20;100616.69;;;10.89;63.35
43621;BME280;29213;50.770;7.298;2023-05-15T05:21:46;100528.50;;;10.33;63.54
43621;BME280;29213;50.770;7.298;2023-05-15T05:24:12;100553.34;;;10.50;63.79
43621;BME280;29213;50.770;7.298;2023-05-15T05:26:37;100628.84;;;10.92;63.69
43621;BME280;29213;50.770;7.298;2023-05-15T05:29:02;100590.53;;;10.76;63.52
43621;BME280;29213;50.770;7.298;2023-05-15T05:31:28;100588.19;;;10.81;63.80
43621;BME280;29213;50.770;7.298;2023-05-15T05:33:54;100630.88;;;11.06;63.87
43621;BME280;29213;50.770;7.298;2023-05-15T05:36:19;100541.19;;;10.47;63.97
43621;BME280;29213;50.770;7.298;2023-05-15T05:38:45;100570.84;;;10.69;63.75
43621;BME280;29213;50.770;7.298;2023-05-15T05:41:11;100636.34;;;11.13;63.63
43621;BME280;29213;50.770;7.298;2023-05-15T05:43:36;100544.53;;;10.57;63.80
43621;BME280;29213;50.770;7.298;2023-05-15T05:46:02;100635.66;;;11.19;63.76
43621;BME280;29213;50.770;7.298;2023-05-15T05:48:27;100521.56;;;10.48;63.91
43621;BME280;29213;50.770;7.298;2023-05-15T05:50:53;100646.66;;;11.25;63.77
43621;BME280;29213;50.770;7.298;2023-05-15T05:53:18;100513.06;;;10.45;64.16
43621;BME280;29213;50.770;7.298;2023-05-15T05:55:44;100562.72;;;10.79;63.97
43621;BME280;29213;50.770;7.298;2023-05-15T05:58:09;100591.88;;;10.97;65.37
43621;BME280;29213;50.770;7.298;2023-05-15T06:00:35;100642.63;;;11.54;66.44
43621;BME280;29213;50.770;7.298;2023-05-15T06:03:00;100590.81;;;11.40;66.01
43621;BME280;29213;50.770;7.298;2023-05-15T06:05:26;100639.09;;;11.86;65.28
43621;BME280;29213;50.770;7.298;2023-05-15T06:07:52;100642.91;;;12.00;64.78
43621;BME280;29213;50.770;7.298;2023-05-15T06:10:18;100615.06;;;11.95;63.89
43621;BME280;29213;50.770;7.298;2023-05-15T06:12:44;100543.50;;;11.42;63.14
43621;BME280;29213;50.770;7.298;2023-05-15T06:15:11;100588.59;;;11.68;62.97
43621;BME280;29213;50.770;7.298;2023-05-15T06:17:36;100650.41;;;12.05;62.64
43621;BME280;29213;50.770;7.298;2023-05-15T06:20:03;100608.78;;;11.71;62.45
43621;BME280;29213;50.770;7.298;2023-05-15T06:22:32;100618.94;;;11.75;62.32
43621;BME280;29213;50.770;7.298;2023-05-15T06:24:58;100556.34;;;11.38;62.07
43621;BME280;29213;50.770;7.298;2023-05-15T06:27:24;100647.59;;;11.82;62.69
43621;BME280;29213;50.770;7.298;2023-05-15T06:29:50;100627.63;;;11.69;62.31
43621;BME280;29213;50.770;7.298;2023-05-15T06:32:16;100569.53;;;11.31;62.35
43621;BME280;29213;50.770;7.298;2023-05-15T06:34:41;100618.97;;;11.59;62.48
43621;BME280;29213;50.770;7.298;2023-05-15T06:37:07;100597.16;;;11.47;62.36
43621;BME280;29213;50.770;7.298;2023-05-15T06:39:32;100656.78;;;11.79;62.20
43621;BME280;29213;50.770;7.298;2023-05-15T06:41:58;100589.16;;;11.39;62.42
43621;BME280;29213;50.770;7.298;2023-05-15T06:44:26;100602.81;;;11.52;62.32
43621;BME280;29213;50.770;7.298;2023-05-15T06:46:52;100622.31;;;11.61;62.19
43621;BME280;29213;50.770;7.298;2023-05-15T06:49:17;100608.66;;;11.56;62.06
43621;BME280;29213;50.770;7.298;2023-05-15T06:51:42;100608.81;;;11.54;61.88
43621;BME280;29213;50.770;7.298;2023-05-15T06:54:08;100663.09;;;11.95;61.70
43621;BME280;29213;50.770;7.298;2023-05-15T06:56:33;100668.13;;;11.98;61.73
43621;BME280;29213;50.770;7.298;2023-05-15T06:58:59;100530.25;;;11.08;61.43
43621;BME280;29213;50.770;7.298;2023-05-15T07:01:24;100672.28;;;12.00;61.49
43621;BME280;29213;50.770;7.298;2023-05-15T07:03:50;100671.09;;;12.03;61.44
43621;BME280;29213;50.770;7.298;2023-05-15T07:06:15;100658.91;;;11.92;61.49
43621;BME280;29213;50.770;7.298;2023-05-15T07:08:40;100607.31;;;11.60;61.54
43621;BME280;29213;50.770;7.298;2023-05-15T07:11:06;100602.63;;;11.62;61.52
43621;BME280;29213;50.770;7.298;2023-05-15T07:13:31;100531.22;;;11.16;61.18
43621;BME280;29213;50.770;7.298;2023-05-15T07:15:57;100621.44;;;11.77;61.30
43621;BME280;29213;50.770;7.298;2023-05-15T07:18:22;100659.72;;;12.09;61.24
43621;BME280;29213;50.770;7.298;2023-05-15T07:20:47;100541.84;;;11.41;61.14
43621;BME280;29213;50.770;7.298;2023-05-15T07:23:13;100551.66;;;11.48;61.19
43621;BME280;29213;50.770;7.298;2023-05-15T07:25:38;100664.22;;;12.09;61.16
43621;BME280;29213;50.770;7.298;2023-05-15T07:28:04;100579.16;;;11.57;61.56
43621;BME280;29213;50.770;7.298;2023-05-15T07:30:29;100606.22;;;11.86;61.31
43621;BME280;29213;50.770;7.298;2023-05-15T07:32:54;100628.41;;;11.95;61.26
43621;BME280;29213;50.770;7.298;2023-05-15T07:35:20;100527.50;;;11.33;61.30
43621;BME280;29213;50.770;7.298;2023-05-15T07:37:45;100631.06;;;11.95;61.06
43621;BME280;29213;50.770;7.298;2023-05-15T07:40:11;100610.59;;;11.79;61.08
43621;BME280;29213;50.770;7.298;2023-05-15T07:42:36;100535.50;;;11.42;60.97
43621;BME280;29213;50.770;7.298;2023-05-15T07:45:05;100614.91;;;11.96;61.18
43621;BME280;29213;50.770;7.298;2023-05-15T07:47:30;100669.88;;;12.22;61.03
43621;BME280;29213;50.770;7.298;2023-05-15T07:49:56;100533.22;;;11.30;60.86
43621;BME280;29213;50.770;7.298;2023-05-15T07:52:21;100572.31;;;11.46;61.19
43621;BME280;29213;50.770;7.298;2023-05-15T07:54:47;100668.72;;;12.16;61.14
43621;BME280;29213;50.770;7.298;2023-05-15T07:57:12;100666.19;;;12.23;61.33
43621;BME280;29213;50.770;7.298;2023-05-15T07:59:38;100583.75;;;11.72;61.33
43621;BME280;29213;50.770;7.298;2023-05-15T08:02:03;100642.22;;;12.07;61.16
43621;BME280;29213;50.770;7.298;2023-05-15T08:04:29;100622.25;;;11.94;61.13
43621;BME280;29213;50.770;7.298;2023-05-15T08:06:54;100616.91;;;11.86;61.19
43621;BME280;29213;50.770;7.298;2023-05-15T08:09:20;100608.44;;;11.74;60.76
43621;BME280;29213;50.770;7.298;2023-05-15T08:11:45;100674.22;;;12.15;60.93
43621;BME280;29213;50.770;7.298;2023-05-15T08:14:10;100634.75;;;11.85;60.86
43621;BME280;29213;50.770;7.298;2023-05-15T08:16:36;100652.75;;;11.92;60.66
43621;BME280;29213;50.770;7.298;2023-05-15T08:19:01;100658.91;;;11.92;60.85
43621;BME280;29213;50.770;7.298;2023-05-15T08:21:30;100681.13;;;11.93;61.08
43621;BME280;29213;50.770;7.298;2023-05-15T08:23:58;100608.28;;;11.59;61.05
43621;BME280;29213;50.770;7.298;2023-05-15T08:26:24;100574.50;;;11.43;60.85
43621;BME280;29213;50.770;7.298;2023-05-15T08:28:49;100556.72;;;11.27;60.67
43621;BME280;29213;50.770;7.298;2023-05-15T08:31:15;100640.59;;;11.81;60.67
43621;BME280;29213;50.770;7.298;2023-05-15T08:33:40;100603.63;;;11.61;60.49
43621;BME280;29213;50.770;7.298;2023-05-15T08:36:06;100611.16;;;11.57;60.28
43621;BME280;29213;50.770;7.298;2023-05-15T08:38:32;100686.97;;;11.96;60.42
43621;BME280;29213;50.770;7.298;2023-05-15T08:41:04;100683.63;;;11.86;60.59
43621;BME280;29213;50.770;7.298;2023-05-15T08:43:32;100634.81;;;11.60;60.61
43621;BME280;29213;50.770;7.298;2023-05-15T08:46:00;100609.50;;;11.48;60.46
43621;BME280;29213;50.770;7.298;2023-05-15T08:48:28;100637.81;;;11.57;60.28
43621;BME280;29213;50.770;7.298;2023-05-15T08:50:55;100651.63;;;11.77;60.23
43621;BME280;29213;50.770;7.298;2023-05-15T08:53:22;100608.50;;;11.57;60.14
43621;BME280;29213;50.770;7.298;2023-05-15T08:55:48;100555.22;;;11.24;60.01
43621;BME280;29213;50.770;7.298;2023-05-15T08:58:15;100623.44;;;11.67;60.13
43621;BME280;29213;50.770;7.298;2023-05-15T09:00:41;100660.28;;;11.96;60.00
43621;BME280;29213;50.770;7.298;2023-05-15T09:03:12;100643.75;;;11.84;60.12
43621;BME280;29213;50.770;7.298;2023-05-15T09:05:38;100642.09;;;11.92;60.02
43621;BME280;29213;50.770;7.298;2023-05-15T09:08:04;100642.91;;;11.92;59.84
43621;BME280;29213;50.770;7.298;2023-05-15T09:10:32;100585.16;;;11.51;60.04
43621;BME280;29213;50.770;7.298;2023-05-15T09:12:58;100672.72;;;12.12;59.97
43621;BME280;29213;50.770;7.298;2023-05-15T09:15:26;100621.25;;;11.79;59.64
43621;BME280;29213;50.770;7.298;2023-05-15T09:17:51;100567.47;;;11.50;59.81
43621;BME280;29213;50.770;7.298;2023-05-15T09:20:31;100671.69;;;12.22;59.73
43621;BME280;29213;50.770;7.298;2023-05-15T09:22:58;100660.38;;;12.20;59.73
43621;BME280;29213;50.770;7.298;2023-05-15T09:25:42;100678.63;;;12.39;59.69
43621;BME280;29213;50.770;7.298;2023-05-15T09:28:29;100673.44;;;12.46;59.16
43621;BME280;29213;50.770;7.298;2023-05-15T09:30:57;100642.94;;;12.32;58.95
43621;BME280;29213;50.770;7.298;2023-05-15T09:33:32;100637.66;;;12.24;58.86
43621;BME280;29213;50.770;7.298;2023-05-15T09:35:59;100541.06;;;11.72;59.26
43621;BME280;29213;50.770;7.298;2023-05-15T09:38:24;100600.53;;;12.06;59.05
43621;BME280;29213;50.770;7.298;2023-05-15T09:41:00;100672.19;;;12.57;58.82
43621;BME280;29213;50.770;7.298;2023-05-15T09:43:27;100676.91;;;12.55;58.16
43621;BME280;29213;50.770;7.298;2023-05-15T09:45:53;100578.03;;;11.92;58.06
43621;BME280;29213;50.770;7.298;2023-05-15T09:48:19;100632.50;;;12.22;58.32
43621;BME280;29213;50.770;7.298;2023-05-15T09:50:46;100639.81;;;12.28;58.27
43621;BME280;29213;50.770;7.298;2023-05-15T09:53:12;100662.44;;;12.41;58.20
43621;BME280;29213;50.770;7.298;2023-05-15T09:55:40;100652.28;;;12.36;57.88
43621;BME280;29213;50.770;7.298;2023-05-15T09:58:07;100675.72;;;12.58;57.79
43621;BME280;29213;50.770;7.298;2023-05-15T10:00:34;100586.88;;;12.00;57.56
43621;BME280;29213;50.770;7.298;2023-05-15T10:03:01;100646.72;;;12.46;57.16
43621;BME280;29213;50.770;7.298;2023-05-15T10:05:27;100609.88;;;12.41;56.98
43621;BME280;29213;50.770;7.298;2023-05-15T10:07:53;100564.91;;;12.22;56.91
43621;BME280;29213;50.770;7.298;2023-05-15T10:10:23;100666.66;;;12.90;57.18
43621;BME280;29213;50.770;7.298;2023-05-15T10:12:55;100668.22;;;12.85;56.36
43621;BME280;29213;50.770;7.298;2023-05-15T10:15:27;100666.31;;;12.93;56.78
43621;BME280;29213;50.770;7.298;2023-05-15T10:17:53;100670.22;;;13.14;56.15
43621;BME280;29213;50.770;7.298;2023-05-15T10:20:23;100658.09;;;13.27;55.83
43621;BME280;29213;50.770;7.298;2023-05-15T10:22:54;100611.69;;;13.19;55.24
43621;BME280;29213;50.770;7.298;2023-05-15T10:28:17;100594.16;;;13.17;54.90
43621;BME280;29213;50.770;7.298;2023-05-15T10:30:43;100581.25;;;13.20;55.06
43621;BME280;29213;50.770;7.298;2023-05-15T10:33:10;100604.16;;;13.38;55.19
43621;BME280;29213;50.770;7.298;2023-05-15T10:35:38;100641.19;;;13.80;54.67
43621;BME280;29213;50.770;7.298;2023-05-15T10:38:05;100609.25;;;13.78;54.41
43621;BME280;29213;50.770;7.298;2023-05-15T10:40:32;100590.13;;;13.81;55.03
43621;BME280;29213;50.770;7.298;2023-05-15T10:42:59;100632.72;;;14.21;54.79
43621;BME280;29213;50.770;7.298;2023-05-15T10:45:28;100513.28;;;13.60;54.12
43621;BME280;29213;50.770;7.298;2023-05-15T10:47:54;100613.56;;;14.39;53.69
43621;BME280;29213;50.770;7.298;2023-05-15T10:50:20;100622.00;;;14.58;52.35
43621;BME280;29213;50.770;7.298;2023-05-15T10:52:50;100553.13;;;14.15;53.14
43621;BME280;29213;50.770;7.298;2023-05-15T10:55:16;100557.22;;;14.33;52.71
43621;BME280;29213;50.770;7.298;2023-05-15T10:57:45;100552.31;;;14.58;51.88
43621;BME280;29213;50.770;7.298;2023-05-15T11:02:48;100614.25;;;15.35;51.01
43621;BME280;29213;50.770;7.298;2023-05-15T11:05:15;100562.16;;;15.23;51.35
43621;BME280;29213;50.770;7.298;2023-05-15T11:07:40;100538.00;;;15.23;51.12
43621;BME280;29213;50.770;7.298;2023-05-15T11:12:57;100566.97;;;15.70;50.98
43621;BME280;29213;50.770;7.298;2023-05-15T11:15:23;100572.66;;;15.95;50.53
43621;BME280;29213;50.770;7.298;2023-05-15T11:18:01;100600.28;;;16.18;49.20
43621;BME280;29213;50.770;7.298;2023-05-15T11:20:40;100570.06;;;16.15;48.96
43621;BME280;29213;50.770;7.298;2023-05-15T11:23:06;100556.28;;;16.25;48.54
43621;BME280;29213;50.770;7.298;2023-05-15T11:25:33;100580.72;;;16.51;48.09
43621;BME280;29213;50.770;7.298;2023-05-15T11:28:01;100533.34;;;16.36;46.97
43621;BME280;29213;50.770;7.298;2023-05-15T11:30:39;100520.56;;;16.38;46.95
43621;BME280;29213;50.770;7.298;2023-05-15T11:33:08;100537.34;;;16.67;46.34
43621;BME280;29213;50.770;7.298;2023-05-15T11:35:38;100566.31;;;16.99;46.08
43621;BME280;29213;50.770;7.298;2023-05-15T11:41:11;100560.72;;;17.14;46.00
43621;BME280;29213;50.770;7.298;2023-05-15T11:43:36;100529.03;;;17.16;45.84
43621;BME280;29213;50.770;7.298;2023-05-15T11:48:41;100546.78;;;17.58;45.93
43621;BME280;29213;50.770;7.298;2023-05-15T11:51:20;100543.63;;;17.68;45.58
43621;BME280;29213;50.770;7.298;2023-05-15T11:53:47;100505.13;;;17.67;45.85
43621;BME280;29213;50.770;7.298;2023-05-15T11:56:31;100512.09;;;17.82;45.15
43621;BME280;29213;50.770;7.298;2023-05-15T11:58:58;100526.03;;;18.11;44.70
43621;BME280;29213;50.770;7.298;2023-05-15T12:01:25;100521.00;;;18.21;44.96
43621;BME280;29213;50.770;7.298;2023-05-15T12:03:51;100522.63;;;18.29;44.75
43621;BME280;29213;50.770;7.298;2023-05-15T12:06:18;100488.94;;;18.13;44.04
43621;BME280;29213;50.770;7.298;2023-05-15T12:08:49;100484.28;;;17.95;43.33
43621;BME280;29213;50.770;7.298;2023-05-15T12:11:20;100502.63;;;18.11;43.99
43621;BME280;29213;50.770;7.298;2023-05-15T12:16:13;100470.25;;;17.86;42.77
43621;BME280;29213;50.770;7.298;2023-05-15T12:18:38;100455.34;;;17.83;43.38
43621;BME280;29213;50.770;7.298;2023-05-15T12:21:04;100510.69;;;18.18;42.44
43621;BME280;29213;50.770;7.298;2023-05-15T12:23:31;100491.06;;;18.04;42.66
43621;BME280;29213;50.770;7.298;2023-05-15T12:25:58;100477.63;;;17.97;42.88
43621;BME280;29213;50.770;7.298;2023-05-15T12:28:25;100468.50;;;17.98;42.31
43621;BME280;29213;50.770;7.298;2023-05-15T12:30:51;100476.75;;;18.03;41.04
43621;BME280;29213;50.770;7.298;2023-05-15T12:33:17;100484.63;;;18.05;41.50
43621;BME280;29213;50.770;7.298;2023-05-15T12:35:48;100501.34;;;18.21;40.85
43621;BME280;29213;50.770;7.298;2023-05-15T12:38:14;100497.97;;;18.25;40.76
43621;BME280;29213;50.770;7.298;2023-05-15T12:40:42;100488.25;;;18.24;39.98
43621;BME280;29213;50.770;7.298;2023-05-15T12:43:09;100416.59;;;17.78;39.99
43621;BME280;29213;50.770;7.298;2023-05-15T12:45:36;100418.09;;;17.73;40.32
43621;BME280;29213;50.770;7.298;2023-05-15T12:48:03;100485.97;;;18.21;38.20
43621;BME280;29213;50.770;7.298;2023-05-15T12:50:31;100385.22;;;17.58;39.59
43621;BME280;29213;50.770;7.298;2023-05-15T12:52:59;100437.53;;;17.82;37.96
43621;BME280;29213;50.770;7.298;2023-05-15T12:55:27;100488.31;;;18.11;37.67
43621;BME280;29213;50.770;7.298;2023-05-15T12:57:55;100474.84;;;18.11;37.52
43621;BME280;29213;50.770;7.298;2023-05-15T13:00:22;100471.56;;;18.09;36.58
43621;BME280;29213;50.770;7.298;2023-05-15T13:02:50;100476.34;;;18.07;36.51
43621;BME280;29213;50.770;7.298;2023-05-15T13:05:16;100441.19;;;17.95;37.33
43621;BME280;29213;50.770;7.298;2023-05-15T13:07:42;100441.72;;;18.03;37.20
43621;BME280;29213;50.770;7.298;2023-05-15T13:10:08;100448.94;;;18.10;37.40